sensor_id;sensor_type;location;lat;lon;timestamp;temperature;humidity
8563;DHT22;16392;52.508;13.468;2023-02-07T00:00:19;-2.90;99.90
8563;DHT22;16392;52.508;13.468;2023-02-07T00:02:47;-3.00;99.90
8563;DHT22;16392;52.508;13.468;2023-02-07T00:05:15;-3.00;99.90
8563;DHT22;16392;52.508;13.468;2023-02-07T00:07:43;-2.90;99.90
8563;DHT22;16392;52.508;13.468;2023-02-07T00:10:10;-2.80;99.90
8563;DHT22;16392;52.508;13.468;2023-02-07T00:12:36;-2.90;99.90
8563;DHT22;16392;52.508;13.468;2023-02-07T00:15:03;-3.10;99.90
8563;DHT22;16392;52.508;13.468;2023-02-07T00:17:30;-3.20;99.90
8563;DHT22;16392;52.508;13.468;2023-02-07T00:19:57;-3.40;99.90
8563;DHT22;16392;52.508;13.468;2023-02-07T00:22:24;-3.50;99.90
8563;DHT22;16392;52.508;13.468;2023-02-07T00:24:52;-3.60;99.90
8563;DHT22;16392;52.508;13.468;2023-02-07T00:27:19;-3.60;99.90
8563;DHT22;16392;52.508;13.468;2023-02-07T00:29:46;-3.70;99.90
8563;DHT22;16392;52.508;13.468;2023-02-07T00:32:13;-3.60;99.90
8563;DHT22;16392;52.508;13.468;2023-02-07T00:34:39;-3.50;99.90
8563;DHT22;16392;52.508;13.468;2023-02-07T00:37:06;-3.50;99.90
8563;DHT22;16392;52.508;13.468;2023-02-07T00:39:34;-3.40;99.90
8563;DHT22;16392;52.508;13.468;2023-02-07T00:42:04;-3.40;99.90
8563;DHT22;16392;52.508;13.468;2023-02-07T00:44:31;-3.40;99.90
8563;DHT22;16392;52.508;13.468;2023-02-07T00:46:58;-3.40;99.90
8563;DHT22;16392;52.508;13.468;2023-02-07T00:49:24;-3.50;99.90
8563;DHT22;16392;52.508;13.468;2023-02-07T00:51:51;-3.60;99.90
8563;DHT22;16392;52.508;13.468;2023-02-07T00:54:18;-3.70;99.90
8563;DHT22;16392;52.508;13.468;2023-02-07T00:56:44;-3.80;99.90
8563;DHT22;16392;52.508;13.468;2023-02-07T00:59:12;-4.00;99.90
8563;DHT22;16392;52.508;13.468;2023-02-07T01:01:39;-3.80;99.90
8563;DHT22;16392;52.508;13.468;2023-02-07T01:04:06;-3.70;99.90
8563;DHT22;16392;52.508;13.468;2023-02-07T01:06:32;-3.80;99.90
8563;DHT22;16392;52.508;13.468;2023-02-07T01:09:03;-3.90;99.90
8563;DHT22;16392;52.508;13.468;2023-02-07T01:11:30;-3.70;99.90
8563;DHT22;16392;52.508;13.468;2023-02-07T01:13:57;-3.50;99.90
8563;DHT22;16392;52.508;13.468;2023-02-07T01:16:28;-3.50;99.90
8563;DHT22;16392;52.508;13.468;2023-02-07T01:18:55;-3.50;99.90
8563;DHT22;16392;52.508;13.468;2023-02-07T01:21:24;-3.50;99.90
8563;DHT22;16392;52.508;13.468;2023-02-07T01:23:51;-3.40;99.90
8563;DHT22;16392;52.508;13.468;2023-02-07T01:26:21;-3.40;99.90
8563;DHT22;16392;52.508;13.468;2023-02-07T01:28:48;-3.30;99.90
8563;DHT22;16392;52.508;13.468;2023-02-07T01:31:14;-3.30;99.90
8563;DHT22;16392;52.508;13.468;2023-02-07T01:33:42;-3.30;99.90
8563;DHT22;16392;52.508;13.468;2023-02-07T01:36:11;-3.50;99.90
8563;DHT22;16392;52.508;13.468;2023-02-07T01:38:38;-3.40;99.90
8563;DHT22;16392;52.508;13.468;2023-02-07T01:41:05;-3.40;99.90
8563;DHT22;16392;52.508;13.468;2023-02-07T01:43:32;-3.40;99.90
8563;DHT22;16392;52.508;13.468;2023-02-07T01:45:58;-3.40;99.90
8563;DHT22;16392;52.508;13.468;2023-02-07T01:48:29;-3.40;99.90
8563;DHT22;16392;52.508;13.468;2023-02-07T01:51:00;-3.40;99.90
8563;DHT22;16392;52.508;13.468;2023-02-07T01:53:29;-3.50;99.90
8563;DHT22;16392;52.508;13.468;2023-02-07T01:55:59;-3.50;99.90
8563;DHT22;16392;52.508;13.468;2023-02-07T01:58:29;-3.60;99.90
8563;DHT22;16392;52.508;13.468;2023-02-07T02:00:57;-3.60;99.90
8563;DHT22;16392;52.508;13.468;2023-02-07T02:03:24;-3.50;99.90
8563;DHT22;16392;52.508;13.468;2023-02-07T02:05:51;-3.40;99.90
8563;DHT22;16392;52.508;13.468;2023-02-07T02:08:20;-3.50;99.90
8563;DHT22;16392;52.508;13.468;2023-02-07T02:10:56;-3.50;99.90
8563;DHT22;16392;52.508;13.468;2023-02-07T02:13:31;-3.70;99.90
8563;DHT22;16392;52.508;13.468;2023-02-07T02:16:04;-4.00;99.90
8563;DHT22;16392;52.508;13.468;2023-02-07T02:18:50;-4.00;99.90
8563;DHT22;16392;52.508;13.468;2023-02-07T02:21:44;-3.90;99.90
8563;DHT22;16392;52.508;13.468;2023-02-07T02:24:36;-3.90;99.90
8563;DHT22;16392;52.508;13.468;2023-02-07T02:27:10;-3.80;99.90
8563;DHT22;16392;52.508;13.468;2023-02-07T02:33:02;-3.90;99.90
8563;DHT22;16392;52.508;13.468;2023-02-07T02:35:34;-3.90;99.90
8563;DHT22;16392;52.508;13.468;2023-02-07T02:38:12;-3.90;99.90
8563;DHT22;16392;52.508;13.468;2023-02-07T02:40:46;-3.80;99.90
8563;DHT22;16392;52.508;13.468;2023-02-07T02:43:20;-3.80;99.90
8563;DHT22;16392;52.508;13.468;2023-02-07T02:45:55;-3.70;99.90
8563;DHT22;16392;52.508;13.468;2023-02-07T02:48:23;-3.70;99.90
8563;DHT22;16392;52.508;13.468;2023-02-07T02:50:52;-3.80;99.90
8563;DHT22;16392;52.508;13.468;2023-02-07T02:53:20;-3.90;99.90
8563;DHT22;16392;52.508;13.468;2023-02-07T02:56:12;-3.90;99.90
8563;DHT22;16392;52.508;13.468;2023-02-07T02:59:03;-4.00;99.90
8563;DHT22;16392;52.508;13.468;2023-02-07T03:01:44;-4.10;99.90
8563;DHT22;16392;52.508;13.468;2023-02-07T03:04:26;-4.10;99.90
8563;DHT22;16392;52.508;13.468;2023-02-07T03:07:07;-3.80;99.90
8563;DHT22;16392;52.508;13.468;2023-02-07T03:09:42;-3.70;99.90
8563;DHT22;16392;52.508;13.468;2023-02-07T03:12:17;-3.70;99.90
8563;DHT22;16392;52.508;13.468;2023-02-07T03:14:52;-3.70;99.90
8563;DHT22;16392;52.508;13.468;2023-02-07T03:17:23;-3.70;99.90
8563;DHT22;16392;52.508;13.468;2023-02-07T03:19:55;-3.70;99.90
8563;DHT22;16392;52.508;13.468;2023-02-07T03:22:25;-3.80;99.90
8563;DHT22;16392;52.508;13.468;2023-02-07T03:24:56;-3.80;99.90
8563;DHT22;16392;52.508;13.468;2023-02-07T03:27:25;-3.80;99.90
8563;DHT22;16392;52.508;13.468;2023-02-07T03:29:54;-3.90;99.90
8563;DHT22;16392;52.508;13.468;2023-02-07T03:32:27;-3.90;99.90
8563;DHT22;16392;52.508;13.468;2023-02-07T03:35:00;-3.90;99.90
8563;DHT22;16392;52.508;13.468;2023-02-07T03:37:32;-4.00;99.90
8563;DHT22;16392;52.508;13.468;2023-02-07T03:40:01;-4.10;99.90
8563;DHT22;16392;52.508;13.468;2023-02-07T03:42:34;-4.20;99.90
8563;DHT22;16392;52.508;13.468;2023-02-07T03:45:04;-4.30;99.90
8563;DHT22;16392;52.508;13.468;2023-02-07T03:47:33;-4.40;99.90
8563;DHT22;16392;52.508;13.468;2023-02-07T03:50:01;-4.40;99.90
8563;DHT22;16392;52.508;13.468;2023-02-07T03:52:28;-4.40;99.90
8563;DHT22;16392;52.508;13.468;2023-02-07T03:54:55;-4.30;99.90
8563;DHT22;16392;52.508;13.468;2023-02-07T03:57:21;-4.20;99.90
8563;DHT22;16392;52.508;13.468;2023-02-07T03:59:48;-4.30;99.90
8563;DHT22;16392;52.508;13.468;2023-02-07T04:02:14;-4.40;99.90
8563;DHT22;16392;52.508;13.468;2023-02-07T04:04:41;-4.50;99.90
8563;DHT22;16392;52.508;13.468;2023-02-07T04:07:09;-4.40;99.90
8563;DHT22;16392;52.508;13.468;2023-02-07T04:09:36;-4.40;99.90
8563;DHT22;16392;52.508;13.468;2023-02-07T04:12:03;-4.40;99.90
8563;DHT22;16392;52.508;13.468;2023-02-07T04:14:30;-4.40;99.90
8563;DHT22;16392;52.508;13.468;2023-02-07T04:16:56;-4.40;99.90
8563;DHT22;16392;52.508;13.468;2023-02-07T04:19:23;-4.40;99.90
8563;DHT22;16392;52.508;13.468;2023-02-07T04:21:49;-4.40;99.90
8563;DHT22;16392;52.508;13.468;2023-02-07T04:24:17;-4.40;99.90
8563;DHT22;16392;52.508;13.468;2023-02-07T04:26:44;-4.40;99.90
8563;DHT22;16392;52.508;13.468;2023-02-07T04:29:10;-4.40;99.90
8563;DHT22;16392;52.508;13.468;2023-02-07T04:31:38;-4.40;99.90
8563;DHT22;16392;52.508;13.468;2023-02-07T04:34:07;-4.40;99.90
8563;DHT22;16392;52.508;13.468;2023-02-07T04:36:35;-4.40;99.90
8563;DHT22;16392;52.508;13.468;2023-02-07T04:39:02;-4.30;99.90
8563;DHT22;16392;52.508;13.468;2023-02-07T04:41:30;-4.40;99.90
8563;DHT22;16392;52.508;13.468;2023-02-07T04:43:57;-4.40;99.90
8563;DHT22;16392;52.508;13.468;2023-02-07T04:46:23;-4.40;99.90
8563;DHT22;16392;52.508;13.468;2023-02-07T04:48:50;-4.40;99.90
8563;DHT22;16392;52.508;13.468;2023-02-07T04:51:16;-4.30;99.90
8563;DHT22;16392;52.508;13.468;2023-02-07T04:53:43;-4.40;99.90
8563;DHT22;16392;52.508;13.468;2023-02-07T04:56:09;-4.50;99.90
8563;DHT22;16392;52.508;13.468;2023-02-07T04:58:37;-4.50;99.90
8563;DHT22;16392;52.508;13.468;2023-02-07T05:01:04;-4.50;99.90
8563;DHT22;16392;52.508;13.468;2023-02-07T05:03:31;-4.60;99.90
8563;DHT22;16392;52.508;13.468;2023-02-07T05:05:58;-4.60;99.90
8563;DHT22;16392;52.508;13.468;2023-02-07T05:08:24;-4.60;99.90
8563;DHT22;16392;52.508;13.468;2023-02-07T05:10:52;-4.60;99.90
8563;DHT22;16392;52.508;13.468;2023-02-07T05:13:19;-4.70;99.90
8563;DHT22;16392;52.508;13.468;2023-02-07T05:15:47;-4.70;99.90
8563;DHT22;16392;52.508;13.468;2023-02-07T05:18:13;-4.70;99.90
8563;DHT22;16392;52.508;13.468;2023-02-07T05:20:40;-4.70;99.90
8563;DHT22;16392;52.508;13.468;2023-02-07T05:23:07;-4.60;99.90
8563;DHT22;16392;52.508;13.468;2023-02-07T05:25:34;-4.60;99.90
8563;DHT22;16392;52.508;13.468;2023-02-07T05:28:00;-4.70;99.90
8563;DHT22;16392;52.508;13.468;2023-02-07T05:30:27;-4.80;99.90
8563;DHT22;16392;52.508;13.468;2023-02-07T05:32:55;-4.80;99.90
8563;DHT22;16392;52.508;13.468;2023-02-07T05:35:30;-4.80;99.90
8563;DHT22;16392;52.508;13.468;2023-02-07T05:37:57;-4.80;99.90
8563;DHT22;16392;52.508;13.468;2023-02-07T05:40:24;-4.80;99.90
8563;DHT22;16392;52.508;13.468;2023-02-07T05:42:52;-4.80;99.90
8563;DHT22;16392;52.508;13.468;2023-02-07T05:45:19;-4.80;99.90
8563;DHT22;16392;52.508;13.468;2023-02-07T05:47:45;-4.80;99.90
8563;DHT22;16392;52.508;13.468;2023-02-07T05:50:14;-4.90;99.90
8563;DHT22;16392;52.508;13.468;2023-02-07T05:52:40;-5.00;99.90
8563;DHT22;16392;52.508;13.468;2023-02-07T05:55:08;-4.90;99.90
8563;DHT22;16392;52.508;13.468;2023-02-07T05:57:37;-4.90;99.90
8563;DHT22;16392;52.508;13.468;2023-02-07T06:00:05;-4.90;99.90
8563;DHT22;16392;52.508;13.468;2023-02-07T06:02:32;-4.90;99.90
8563;DHT22;16392;52.508;13.468;2023-02-07T06:04:58;-4.90;99.90
8563;DHT22;16392;52.508;13.468;2023-02-07T06:07:26;-4.90;99.90
8563;DHT22;16392;52.508;13.468;2023-02-07T06:09:53;-5.00;99.90
8563;DHT22;16392;52.508;13.468;2023-02-07T06:12:19;-5.20;99.90
8563;DHT22;16392;52.508;13.468;2023-02-07T06:14:46;-5.20;99.90
8563;DHT22;16392;52.508;13.468;2023-02-07T06:17:12;-5.30;99.90
8563;DHT22;16392;52.508;13.468;2023-02-07T06:19:39;-5.20;99.90
8563;DHT22;16392;52.508;13.468;2023-02-07T06:22:05;-5.00;99.90
8563;DHT22;16392;52.508;13.468;2023-02-07T06:24:33;-4.90;99.90
8563;DHT22;16392;52.508;13.468;2023-02-07T06:27:00;-5.00;99.90
8563;DHT22;16392;52.508;13.468;2023-02-07T06:29:26;-4.90;99.90
8563;DHT22;16392;52.508;13.468;2023-02-07T06:31:53;-4.90;99.90
8563;DHT22;16392;52.508;13.468;2023-02-07T06:34:20;-4.90;99.90
8563;DHT22;16392;52.508;13.468;2023-02-07T06:36:47;-4.80;99.90
8563;DHT22;16392;52.508;13.468;2023-02-07T06:39:13;-4.80;99.90
8563;DHT22;16392;52.508;13.468;2023-02-07T06:41:41;-4.80;99.90
8563;DHT22;16392;52.508;13.468;2023-02-07T06:44:08;-4.70;99.90
8563;DHT22;16392;52.508;13.468;2023-02-07T06:46:34;-4.70;99.90
8563;DHT22;16392;52.508;13.468;2023-02-07T06:49:01;-4.80;99.90
8563;DHT22;16392;52.508;13.468;2023-02-07T06:51:27;-4.80;99.90
8563;DHT22;16392;52.508;13.468;2023-02-07T06:53:54;-4.70;99.90
8563;DHT22;16392;52.508;13.468;2023-02-07T06:56:21;-4.70;99.90
8563;DHT22;16392;52.508;13.468;2023-02-07T06:58:48;-4.60;99.90
8563;DHT22;16392;52.508;13.468;2023-02-07T07:01:15;-4.50;99.90
8563;DHT22;16392;52.508;13.468;2023-02-07T07:03:44;-4.40;99.90
8563;DHT22;16392;52.508;13.468;2023-02-07T07:06:11;-4.30;99.90
8563;DHT22;16392;52.508;13.468;2023-02-07T07:08:38;-4.00;99.90
8563;DHT22;16392;52.508;13.468;2023-02-07T07:11:04;-3.40;99.90
8563;DHT22;16392;52.508;13.468;2023-02-07T07:13:31;-3.00;99.90
8563;DHT22;16392;52.508;13.468;2023-02-07T07:15:59;-2.80;99.90
8563;DHT22;16392;52.508;13.468;2023-02-07T07:18:26;-2.60;99.90
8563;DHT22;16392;52.508;13.468;2023-02-07T07:20:53;-2.40;99.90
8563;DHT22;16392;52.508;13.468;2023-02-07T07:23:21;-2.10;99.90
8563;DHT22;16392;52.508;13.468;2023-02-07T07:25:48;-1.90;99.90
8563;DHT22;16392;52.508;13.468;2023-02-07T07:28:15;-1.70;99.90
8563;DHT22;16392;52.508;13.468;2023-02-07T07:30:41;-1.60;99.90
8563;DHT22;16392;52.508;13.468;2023-02-07T07:33:09;-1.50;99.90
8563;DHT22;16392;52.508;13.468;2023-02-07T07:35:36;-1.10;99.90
8563;DHT22;16392;52.508;13.468;2023-02-07T07:38:03;-0.70;99.90
8563;DHT22;16392;52.508;13.468;2023-02-07T07:40:30;-0.80;99.90
8563;DHT22;16392;52.508;13.468;2023-02-07T07:42:56;-0.70;99.90
8563;DHT22;16392;52.508;13.468;2023-02-07T07:45:23;-0.80;99.90
8563;DHT22;16392;52.508;13.468;2023-02-07T07:47:50;-0.70;99.90
8563;DHT22;16392;52.508;13.468;2023-02-07T07:50:18;-0.50;99.90
8563;DHT22;16392;52.508;13.468;2023-02-07T07:52:45;-0.20;99.90
8563;DHT22;16392;52.508;13.468;2023-02-07T07:55:11;0.40;99.90
8563;DHT22;16392;52.508;13.468;2023-02-07T07:57:39;0.80;99.90
8563;DHT22;16392;52.508;13.468;2023-02-07T08:00:07;1.20;99.90
8563;DHT22;16392;52.508;13.468;2023-02-07T08:02:33;1.90;99.90
8563;DHT22;16392;52.508;13.468;2023-02-07T08:05:00;2.00;99.20
8563;DHT22;16392;52.508;13.468;2023-02-07T08:07:28;2.20;1.00
8563;DHT22;16392;52.508;13.468;2023-02-07T08:09:54;2.70;99.90
8563;DHT22;16392;52.508;13.468;2023-02-07T08:12:21;2.90;1.00
8563;DHT22;16392;52.508;13.468;2023-02-07T08:14:47;2.70;1.00
8563;DHT22;16392;52.508;13.468;2023-02-07T08:17:14;2.80;99.90
8563;DHT22;16392;52.508;13.468;2023-02-07T08:19:40;3.20;99.90
8563;DHT22;16392;52.508;13.468;2023-02-07T08:22:07;3.30;1.00
8563;DHT22;16392;52.508;13.468;2023-02-07T08:24:35;3.50;1.00
8563;DHT22;16392;52.508;13.468;2023-02-07T08:27:02;3.90;1.00
8563;DHT22;16392;52.508;13.468;2023-02-07T08:29:28;4.20;1.00
8563;DHT22;16392;52.508;13.468;2023-02-07T08:31:55;4.60;1.00
8563;DHT22;16392;52.508;13.468;2023-02-07T08:34:21;4.70;1.00
8563;DHT22;16392;52.508;13.468;2023-02-07T08:36:50;4.60;1.00
8563;DHT22;16392;52.508;13.468;2023-02-07T08:39:17;4.30;96.50
8563;DHT22;16392;52.508;13.468;2023-02-07T08:41:45;4.00;99.90
8563;DHT22;16392;52.508;13.468;2023-02-07T08:44:11;3.70;99.90
8563;DHT22;16392;52.508;13.468;2023-02-07T08:46:38;3.90;99.90
8563;DHT22;16392;52.508;13.468;2023-02-07T08:49:04;4.30;99.90
8563;DHT22;16392;52.508;13.468;2023-02-07T08:51:31;4.20;99.90
8563;DHT22;16392;52.508;13.468;2023-02-07T08:53:57;4.70;99.90
8563;DHT22;16392;52.508;13.468;2023-02-07T08:56:24;5.00;99.90
8563;DHT22;16392;52.508;13.468;2023-02-07T08:58:52;5.30;1.00
8563;DHT22;16392;52.508;13.468;2023-02-07T09:01:19;5.00;99.90
8563;DHT22;16392;52.508;13.468;2023-02-07T09:03:45;4.70;38.70
8563;DHT22;16392;52.508;13.468;2023-02-07T09:06:12;4.90;1.00
8563;DHT22;16392;52.508;13.468;2023-02-07T09:08:39;4.70;99.90
8563;DHT22;16392;52.508;13.468;2023-02-07T09:11:05;4.50;1.00
8563;DHT22;16392;52.508;13.468;2023-02-07T09:13:32;4.70;1.00
8563;DHT22;16392;52.508;13.468;2023-02-07T09:16:00;4.90;99.90
8563;DHT22;16392;52.508;13.468;2023-02-07T09:18:26;5.30;99.90
8563;DHT22;16392;52.508;13.468;2023-02-07T09:20:54;5.50;99.90
8563;DHT22;16392;52.508;13.468;2023-02-07T09:23:21;5.60;99.90
8563;DHT22;16392;52.508;13.468;2023-02-07T09:25:49;6.10;99.90
8563;DHT22;16392;52.508;13.468;2023-02-07T09:28:17;5.90;1.00
8563;DHT22;16392;52.508;13.468;2023-02-07T09:30:45;6.10;1.00
8563;DHT22;16392;52.508;13.468;2023-02-07T09:33:13;6.10;1.00
8563;DHT22;16392;52.508;13.468;2023-02-07T09:35:42;6.10;1.00
8563;DHT22;16392;52.508;13.468;2023-02-07T09:38:12;6.20;99.90
8563;DHT22;16392;52.508;13.468;2023-02-07T09:40:40;6.10;99.90
8563;DHT22;16392;52.508;13.468;2023-02-07T09:43:13;6.30;99.90
8563;DHT22;16392;52.508;13.468;2023-02-07T09:45:44;6.30;99.90
8563;DHT22;16392;52.508;13.468;2023-02-07T09:48:16;6.20;99.90
8563;DHT22;16392;52.508;13.468;2023-02-07T09:50:48;6.40;99.90
8563;DHT22;16392;52.508;13.468;2023-02-07T09:53:19;6.50;99.90
8563;DHT22;16392;52.508;13.468;2023-02-07T09:55:50;6.80;99.90
8563;DHT22;16392;52.508;13.468;2023-02-07T09:58:21;6.90;99.90
8563;DHT22;16392;52.508;13.468;2023-02-07T10:00:59;6.70;99.90
8563;DHT22;16392;52.508;13.468;2023-02-07T10:03:27;7.10;99.90
8563;DHT22;16392;52.508;13.468;2023-02-07T10:05:58;7.40;99.90
8563;DHT22;16392;52.508;13.468;2023-02-07T10:08:26;7.40;99.90
8563;DHT22;16392;52.508;13.468;2023-02-07T10:11:04;6.90;99.90
8563;DHT22;16392;52.508;13.468;2023-02-07T10:13:54;6.20;99.90
8563;DHT22;16392;52.508;13.468;2023-02-07T10:16:34;5.30;99.90
8563;DHT22;16392;52.508;13.468;2023-02-07T10:19:14;5.50;99.90
8563;DHT22;16392;52.508;13.468;2023-02-07T10:21:49;5.40;99.90
8563;DHT22;16392;52.508;13.468;2023-02-07T10:24:31;5.30;99.90
8563;DHT22;16392;52.508;13.468;2023-02-07T10:27:08;5.70;99.90
8563;DHT22;16392;52.508;13.468;2023-02-07T10:29:44;6.00;99.90
8563;DHT22;16392;52.508;13.468;2023-02-07T10:32:15;6.30;99.90
8563;DHT22;16392;52.508;13.468;2023-02-07T10:34:46;6.10;99.90
8563;DHT22;16392;52.508;13.468;2023-02-07T10:37:17;6.60;99.90
8563;DHT22;16392;52.508;13.468;2023-02-07T10:39:47;6.40;99.90
8563;DHT22;16392;52.508;13.468;2023-02-07T10:42:16;6.40;99.90
8563;DHT22;16392;52.508;13.468;2023-02-07T10:44:44;6.70;99.90
8563;DHT22;16392;52.508;13.468;2023-02-07T10:47:14;6.20;99.90
8563;DHT22;16392;52.508;13.468;2023-02-07T10:49:43;6.70;99.90
8563;DHT22;16392;52.508;13.468;2023-02-07T10:52:22;6.70;99.90
8563;DHT22;16392;52.508;13.468;2023-02-07T10:54:53;6.30;99.90
8563;DHT22;16392;52.508;13.468;2023-02-07T10:57:21;6.00;99.90
8563;DHT22;16392;52.508;13.468;2023-02-07T10:59:48;5.70;99.90
8563;DHT22;16392;52.508;13.468;2023-02-07T11:02:47;5.50;99.90
8563;DHT22;16392;52.508;13.468;2023-02-07T11:05:37;5.50;99.90
8563;DHT22;16392;52.508;13.468;2023-02-07T11:08:16;5.40;99.90
8563;DHT22;16392;52.508;13.468;2023-02-07T11:10:46;6.00;99.90
8563;DHT22;16392;52.508;13.468;2023-02-07T11:13:15;5.90;99.90
8563;DHT22;16392;52.508;13.468;2023-02-07T11:15:48;6.30;99.90
8563;DHT22;16392;52.508;13.468;2023-02-07T11:18:38;6.10;99.90
8563;DHT22;16392;52.508;13.468;2023-02-07T11:21:07;5.70;99.90
8563;DHT22;16392;52.508;13.468;2023-02-07T11:23:46;6.10;99.90
8563;DHT22;16392;52.508;13.468;2023-02-07T11:26:14;6.20;99.90
8563;DHT22;16392;52.508;13.468;2023-02-07T11:28:42;6.70;99.90
8563;DHT22;16392;52.508;13.468;2023-02-07T11:31:11;6.60;99.90
8563;DHT22;16392;52.508;13.468;2023-02-07T11:33:39;7.00;99.90
8563;DHT22;16392;52.508;13.468;2023-02-07T11:36:12;7.40;99.90
8563;DHT22;16392;52.508;13.468;2023-02-07T11:38:42;7.40;99.90
8563;DHT22;16392;52.508;13.468;2023-02-07T11:41:20;6.40;99.90
8563;DHT22;16392;52.508;13.468;2023-02-07T11:43:59;6.20;99.90
8563;DHT22;16392;52.508;13.468;2023-02-07T11:46:33;6.40;99.90
8563;DHT22;16392;52.508;13.468;2023-02-07T11:49:00;6.40;99.90
8563;DHT22;16392;52.508;13.468;2023-02-07T11:51:29;6.80;99.90
8563;DHT22;16392;52.508;13.468;2023-02-07T11:53:59;6.40;99.90
8563;DHT22;16392;52.508;13.468;2023-02-07T11:56:30;6.80;99.90
8563;DHT22;16392;52.508;13.468;2023-02-07T11:58:58;7.00;99.90
8563;DHT22;16392;52.508;13.468;2023-02-07T12:01:31;6.80;99.90
8563;DHT22;16392;52.508;13.468;2023-02-07T12:04:00;7.00;99.90
8563;DHT22;16392;52.508;13.468;2023-02-07T12:06:32;7.00;99.90
8563;DHT22;16392;52.508;13.468;2023-02-07T12:09:01;6.70;99.90
8563;DHT22;16392;52.508;13.468;2023-02-07T12:11:35;6.70;99.90
8563;DHT22;16392;52.508;13.468;2023-02-07T12:14:07;6.70;99.90
8563;DHT22;16392;52.508;13.468;2023-02-07T12:16:41;6.50;99.90
8563;DHT22;16392;52.508;13.468;2023-02-07T12:19:13;5.90;99.90
8563;DHT22;16392;52.508;13.468;2023-02-07T12:21:50;5.90;99.90
8563;DHT22;16392;52.508;13.468;2023-02-07T12:24:23;5.90;99.90
8563;DHT22;16392;52.508;13.468;2023-02-07T12:26:57;6.40;99.90
8563;DHT22;16392;52.508;13.468;2023-02-07T12:29:31;6.50;99.90
8563;DHT22;16392;52.508;13.468;2023-02-07T12:32:04;6.80;99.90
8563;DHT22;16392;52.508;13.468;2023-02-07T12:34:36;6.50;99.90
8563;DHT22;16392;52.508;13.468;2023-02-07T12:37:12;5.60;99.90
8563;DHT22;16392;52.508;13.468;2023-02-07T12:39:47;5.00;99.90
8563;DHT22;16392;52.508;13.468;2023-02-07T12:42:26;5.20;99.90
8563;DHT22;16392;52.508;13.468;2023-02-07T12:44:57;5.10;99.90
8563;DHT22;16392;52.508;13.468;2023-02-07T12:47:35;5.30;99.90
8563;DHT22;16392;52.508;13.468;2023-02-07T12:50:16;5.80;99.90
8563;DHT22;16392;52.508;13.468;2023-02-07T12:52:53;5.80;99.90
8563;DHT22;16392;52.508;13.468;2023-02-07T12:55:32;5.50;99.90
8563;DHT22;16392;52.508;13.468;2023-02-07T12:58:14;5.20;99.90
8563;DHT22;16392;52.508;13.468;2023-02-07T13:00:51;5.30;99.90
8563;DHT22;16392;52.508;13.468;2023-02-07T13:03:33;4.70;99.90
8563;DHT22;16392;52.508;13.468;2023-02-07T13:06:10;4.50;99.90
8563;DHT22;16392;52.508;13.468;2023-02-07T13:08:43;4.90;99.90
8563;DHT22;16392;52.508;13.468;2023-02-07T13:11:20;4.80;99.90
8563;DHT22;16392;52.508;13.468;2023-02-07T13:14:01;4.50;99.90
8563;DHT22;16392;52.508;13.468;2023-02-07T13:16:38;4.60;99.90
8563;DHT22;16392;52.508;13.468;2023-02-07T13:19:12;4.30;99.90
8563;DHT22;16392;52.508;13.468;2023-02-07T13:21:45;4.20;99.90
8563;DHT22;16392;52.508;13.468;2023-02-07T13:24:16;4.20;99.90
8563;DHT22;16392;52.508;13.468;2023-02-07T13:26:50;4.30;99.90
8563;DHT22;16392;52.508;13.468;2023-02-07T13:29:21;4.10;99.90
8563;DHT22;16392;52.508;13.468;2023-02-07T13:31:50;4.40;99.90
8563;DHT22;16392;52.508;13.468;2023-02-07T13:34:20;4.70;99.90
8563;DHT22;16392;52.508;13.468;2023-02-07T13:36:50;4.80;99.90
8563;DHT22;16392;52.508;13.468;2023-02-07T13:39:27;4.80;99.90
8563;DHT22;16392;52.508;13.468;2023-02-07T13:42:07;5.00;99.90
8563;DHT22;16392;52.508;13.468;2023-02-07T13:44:47;4.80;99.90
8563;DHT22;16392;52.508;13.468;2023-02-07T13:47:32;4.80;99.90
8563;DHT22;16392;52.508;13.468;2023-02-07T13:50:21;4.70;99.90
8563;DHT22;16392;52.508;13.468;2023-02-07T13:52:56;4.70;99.90
8563;DHT22;16392;52.508;13.468;2023-02-07T13:55:29;4.50;99.90
8563;DHT22;16392;52.508;13.468;2023-02-07T13:57:57;4.30;99.90
8563;DHT22;16392;52.508;13.468;2023-02-07T14:01:14;4.50;99.90
8563;DHT22;16392;52.508;13.468;2023-02-07T14:03:59;4.60;99.90
8563;DHT22;16392;52.508;13.468;2023-02-07T14:06:28;4.60;99.90
8563;DHT22;16392;52.508;13.468;2023-02-07T14:09:00;4.80;99.90
8563;DHT22;16392;52.508;13.468;2023-02-07T14:11:35;4.80;99.90
8563;DHT22;16392;52.508;13.468;2023-02-07T14:14:14;4.70;99.90
8563;DHT22;16392;52.508;13.468;2023-02-07T14:16:48;4.40;99.90
8563;DHT22;16392;52.508;13.468;2023-02-07T14:19:52;4.30;99.90
8563;DHT22;16392;52.508;13.468;2023-02-07T14:22:22;4.10;99.90
8563;DHT22;16392;52.508;13.468;2023-02-07T14:27:34;3.80;99.90
8563;DHT22;16392;52.508;13.468;2023-02-07T14:30:13;3.60;99.90
8563;DHT22;16392;52.508;13.468;2023-02-07T14:32:43;3.50;99.90
8563;DHT22;16392;52.508;13.468;2023-02-07T14:35:35;3.40;1.00
8563;DHT22;16392;52.508;13.468;2023-02-07T14:38:10;3.30;99.90
8563;DHT22;16392;52.508;13.468;2023-02-07T14:40:51;3.20;99.90
8563;DHT22;16392;52.508;13.468;2023-02-07T14:43:24;3.20;99.90
8563;DHT22;16392;52.508;13.468;2023-02-07T14:46:03;3.10;99.90
8563;DHT22;16392;52.508;13.468;2023-02-07T14:48:36;3.00;99.90
8563;DHT22;16392;52.508;13.468;2023-02-07T14:51:10;2.90;99.90
8563;DHT22;16392;52.508;13.468;2023-02-07T14:53:38;2.80;99.90
8563;DHT22;16392;52.508;13.468;2023-02-07T14:56:15;2.80;99.90
8563;DHT22;16392;52.508;13.468;2023-02-07T14:58:46;2.90;99.90
8563;DHT22;16392;52.508;13.468;2023-02-07T15:01:17;2.90;99.90
8563;DHT22;16392;52.508;13.468;2023-02-07T15:03:44;2.90;99.90
8563;DHT22;16392;52.508;13.468;2023-02-07T15:06:17;2.80;1.00
8563;DHT22;16392;52.508;13.468;2023-02-07T15:08:54;2.80;1.00
8563;DHT22;16392;52.508;13.468;2023-02-07T15:11:23;2.80;1.00
8563;DHT22;16392;52.508;13.468;2023-02-07T15:13:52;2.70;1.00
8563;DHT22;16392;52.508;13.468;2023-02-07T15:16:21;2.60;1.00
8563;DHT22;16392;52.508;13.468;2023-02-07T15:18:54;2.50;1.00
8563;DHT22;16392;52.508;13.468;2023-02-07T15:21:27;2.50;1.00
8563;DHT22;16392;52.508;13.468;2023-02-07T15:23:57;2.50;1.00
8563;DHT22;16392;52.508;13.468;2023-02-07T15:26:25;2.40;1.00
8563;DHT22;16392;52.508;13.468;2023-02-07T15:28:59;2.30;1.00
8563;DHT22;16392;52.508;13.468;2023-02-07T15:31:26;2.30;1.00
8563;DHT22;16392;52.508;13.468;2023-02-07T15:33:54;2.30;1.00
8563;DHT22;16392;52.508;13.468;2023-02-07T15:36:29;2.30;1.00
8563;DHT22;16392;52.508;13.468;2023-02-07T15:38:58;2.10;13.70
8563;DHT22;16392;52.508;13.468;2023-02-07T15:41:25;1.90;99.90
8563;DHT22;16392;52.508;13.468;2023-02-07T15:43:55;1.80;99.90
8563;DHT22;16392;52.508;13.468;2023-02-07T15:46:22;1.80;99.90
8563;DHT22;16392;52.508;13.468;2023-02-07T15:48:52;1.90;99.90
8563;DHT22;16392;52.508;13.468;2023-02-07T15:51:21;1.80;99.90
8563;DHT22;16392;52.508;13.468;2023-02-07T15:53:55;1.60;99.90
8563;DHT22;16392;52.508;13.468;2023-02-07T15:56:23;1.60;1.00
8563;DHT22;16392;52.508;13.468;2023-02-07T15:58:50;1.50;3.20
8563;DHT22;16392;52.508;13.468;2023-02-07T16:01:22;1.30;99.90
8563;DHT22;16392;52.508;13.468;2023-02-07T16:03:49;1.20;1.00
8563;DHT22;16392;52.508;13.468;2023-02-07T16:06:18;1.10;1.00